Time;durP1;ratioP1;P1;durP2;ratioP2;P2;SDS_P1;SDS_P2;PMS_P1;PMS_P2;Temp;Humidity;BMP_temperature;BMP_pressure;BME280_temperature;BME280_humidity;BME280_pressure;Samples;Min_cycle;Max_cycle;Signal;HPM_P1;HPM_P2
2022/03/20 00:00:26;;;;;;;0.10;0.10;;;6.30;99.90;;;;;;5033166;28;20036;-67
2022/03/20 00:02:53;;;;;;;1.08;1.08;;;6.30;99.90;;;;;;5030382;28;20022;-65
2022/03/20 00:05:18;;;;;;;0.40;0.40;;;6.30;99.90;;;;;;5044084;28;20529;-65
2022/03/20 00:07:46;;;;;;;0.25;0.25;;;6.30;99.90;;;;;;5036562;28;20152;-66
2022/03/20 00:10:14;;;;;;;0.40;0.40;;;6.30;99.90;;;;;;5026190;28;20053;-66
2022/03/20 00:12:40;;;;;;;0.32;0.32;;;6.30;99.90;;;;;;5026619;28;20116;-68
2022/03/20 00:15:07;;;;;;;0.45;0.45;;;6.30;99.90;;;;;;5025763;28;20045;-67
2022/03/20 00:17:33;;;;;;;0.40;0.40;;;6.30;99.90;;;;;;5018944;28;20573;-67
2022/03/20 00:19:58;;;;;;;0.10;0.10;;;6.30;99.90;;;;;;5023829;28;20026;-69
2022/03/20 00:22:25;;;;;;;0.20;0.20;;;6.30;99.90;;;;;;5028830;28;20487;-68
2022/03/20 00:24:51;;;;;;;0.20;0.20;;;6.30;99.90;;;;;;5025555;28;20033;-67
2022/03/20 00:27:17;;;;;;;0.20;0.20;;;6.30;99.90;;;;;;5023176;28;20028;-68
2022/03/20 00:29:43;;;;;;;0.10;0.10;;;6.30;99.90;;;;;;5026054;28;20487;-70
2022/03/20 00:32:11;;;;;;;0.10;0.10;;;6.30;99.90;;;;;;5030774;28;20374;-66
2022/03/20 00:34:37;;;;;;;0.20;0.20;;;6.30;99.90;;;;;;5023199;28;20045;-67
2022/03/20 00:37:04;;;;;;;0.85;0.85;;;6.30;99.90;;;;;;5024853;28;20526;-67
2022/03/20 00:39:29;;;;;;;0.10;0.10;;;6.30;99.90;;;;;;5027957;28;20030;-66
2022/03/20 00:41:55;;;;;;;0.85;0.85;;;6.30;99.90;;;;;;5025906;28;20513;-67
2022/03/20 00:44:21;;;;;;;0.10;0.10;;;6.30;99.90;;;;;;5024485;28;20029;-65
2022/03/20 00:46:48;;;;;;;0.10;0.10;;;6.30;99.90;;;;;;5026414;28;20029;-66
2022/03/20 00:49:14;;;;;;;1.33;1.33;;;6.20;99.90;;;;;;5024168;28;20120;-67
2022/03/20 00:51:40;;;;;;;1.70;1.60;;;6.10;99.90;;;;;;5027020;28;20030;-67
2022/03/20 00:54:06;;;;;;;0.57;0.57;;;6.20;99.90;;;;;;5027968;28;20532;-66
2022/03/20 00:56:31;;;;;;;0.65;0.65;;;6.20;99.90;;;;;;5025554;28;20038;-67
2022/03/20 00:58:57;;;;;;;0.10;0.10;;;6.30;99.90;;;;;;5027435;28;20774;-66
2022/03/20 01:01:23;;;;;;;0.10;0.10;;;6.30;99.90;;;;;;5025402;28;20032;-67
2022/03/20 01:03:48;;;;;;;0.10;0.10;;;6.30;99.90;;;;;;5023932;28;20022;-66
2022/03/20 01:06:14;;;;;;;0.95;0.95;;;6.30;99.90;;;;;;5022695;28;20543;-67
2022/03/20 01:08:40;;;;;;;0.32;0.32;;;6.30;99.90;;;;;;5026779;28;20471;-67
2022/03/20 01:11:07;;;;;;;0.20;0.20;;;6.30;99.90;;;;;;5027822;28;20064;-67
2022/03/20 01:13:33;;;;;;;0.40;0.40;;;6.30;99.90;;;;;;5026427;28;20022;-66
2022/03/20 01:16:00;;;;;;;0.90;0.55;;;6.90;99.90;;;;;;5023731;28;20060;-67
2022/03/20 01:18:25;;;;;;;0.90;0.90;;;6.30;99.90;;;;;;5026889;28;20041;-66
2022/03/20 01:20:54;;;;;;;0.20;0.20;;;6.30;99.90;;;;;;5023938;28;20509;-67
2022/03/20 01:23:23;;;;;;;0.20;0.20;;;6.30;99.90;;;;;;5025494;28;20396;-66
2022/03/20 01:25:50;;;;;;;0.68;0.68;;;6.30;99.90;;;;;;5028992;28;20128;-65
2022/03/20 01:28:18;;;;;;;0.10;0.10;;;6.30;99.90;;;;;;5022501;28;20028;-67
2022/03/20 01:30:44;;;;;;;0.10;0.10;;;6.20;99.90;;;;;;5028338;28;20030;-66
2022/03/20 01:33:10;;;;;;;1.00;1.00;;;6.20;99.90;;;;;;5030044;28;20033;-66
2022/03/20 01:35:36;;;;;;;0.10;0.10;;;6.30;99.90;;;;;;5023531;28;20021;-67
2022/03/20 01:38:03;;;;;;;0.40;0.40;;;6.20;99.90;;;;;;5030355;28;20033;-65
2022/03/20 01:40:29;;;;;;;0.93;0.93;;;6.20;99.90;;;;;;5025447;28;20215;-66
2022/03/20 01:42:54;;;;;;;0.75;0.75;;;6.20;99.90;;;;;;5028391;28;20471;-66
2022/03/20 01:45:22;;;;;;;0.77;0.77;;;6.20;99.90;;;;;;5027391;28;20037;-67
2022/03/20 01:47:49;;;;;;;0.57;0.57;;;6.10;99.90;;;;;;5025467;28;20033;-66
2022/03/20 01:50:16;;;;;;;0.10;0.10;;;6.10;99.90;;;;;;5030220;28;20116;-67
2022/03/20 01:52:48;;;;;;;2.03;1.73;;;6.20;99.90;;;;;;5030326;28;20040;-67
2022/03/20 01:55:15;;;;;;;0.10;0.10;;;6.10;99.90;;;;;;5029712;28;20116;-66
2022/03/20 01:57:41;;;;;;;0.20;0.20;;;6.10;99.90;;;;;;5031310;28;20090;-66
2022/03/20 02:00:09;;;;;;;0.10;0.10;;;6.10;99.90;;;;;;5030627;28;20022;-66
2022/03/20 02:02:35;;;;;;;0.45;0.45;;;6.10;99.90;;;;;;5027649;28;20159;-67
2022/03/20 02:05:02;;;;;;;0.20;0.20;;;6.10;99.90;;;;;;5030959;28;20430;-66
2022/03/20 02:07:28;;;;;;;2.88;2.60;;;6.10;99.90;;;;;;5030415;28;20108;-68
2022/03/20 02:09:53;;;;;;;0.20;0.20;;;5.90;99.90;;;;;;5028357;28;20117;-66
2022/03/20 02:12:19;;;;;;;0.30;0.30;;;6.00;99.90;;;;;;5020791;28;20026;-66
2022/03/20 02:14:45;;;;;;;0.10;0.10;;;6.00;99.90;;;;;;5025359;28;20491;-66
2022/03/20 02:17:12;;;;;;;0.43;0.43;;;6.00;99.90;;;;;;5029281;28;20034;-67
2022/03/20 02:19:39;;;;;;;0.10;0.10;;;6.00;99.90;;;;;;5021961;28;20030;-66
2022/03/20 02:22:05;;;;;;;0.10;0.10;;;6.10;99.90;;;;;;5025561;28;20037;-66
2022/03/20 02:24:44;;;;;;;0.30;0.30;;;6.10;99.90;;;;;;5025354;28;20022;-68
2022/03/20 02:27:15;;;;;;;0.30;0.30;;;6.10;99.90;;;;;;5028733;28;20056;-67
2022/03/20 02:29:42;;;;;;;1.60;1.52;;;6.10;99.90;;;;;;5028166;28;20513;-66
2022/03/20 02:32:09;;;;;;;0.40;0.40;;;6.10;99.90;;;;;;5026331;28;20053;-65
2022/03/20 02:34:36;;;;;;;0.10;0.10;;;6.00;99.90;;;;;;5024691;28;20483;-66
2022/03/20 02:37:02;;;;;;;3.00;2.75;;;6.00;99.90;;;;;;5028126;28;20113;-66
2022/03/20 02:39:29;;;;;;;0.10;0.10;;;6.00;99.90;;;;;;5020885;28;20040;-66
2022/03/20 02:41:55;;;;;;;0.30;0.30;;;6.00;99.90;;;;;;5022491;28;20065;-67
2022/03/20 02:44:52;;;;;;;0.10;0.10;;;5.90;99.90;;;;;;5028775;28;20053;-66
2022/03/20 02:47:25;;;;;;;0.10;0.10;;;5.90;99.90;;;;;;5025656;28;20447;-66
2022/03/20 02:49:56;;;;;;;0.10;0.10;;;5.90;99.90;;;;;;5027671;28;20107;-66
2022/03/20 02:52:30;;;;;;;1.52;1.27;;;5.80;99.90;;;;;;5028598;28;20021;-67
2022/03/20 02:55:02;;;;;;;0.20;0.20;;;5.80;99.90;;;;;;5028622;28;20103;-67
2022/03/20 02:57:32;;;;;;;1.48;1.42;;;5.90;99.90;;;;;;5023079;28;20025;-66
2022/03/20 03:00:04;;;;;;;0.10;0.10;;;5.80;99.90;;;;;;5025284;28;20044;-66
2022/03/20 03:02:39;;;;;;;0.10;0.10;;;5.80;99.90;;;;;;5021798;28;20026;-67
2022/03/20 03:05:05;;;;;;;0.20;0.20;;;5.70;99.90;;;;;;5025460;28;20030;-66
2022/03/20 03:07:31;;;;;;;0.30;0.30;;;5.80;99.90;;;;;;5028118;28;20075;-66
2022/03/20 03:12:43;;;;;;;1.75;1.55;;;5.80;99.90;;;;;;5025194;28;20048;-67
2022/03/20 03:15:21;;;;;;;1.00;1.00;;;5.90;99.90;;;;;;5028870;28;20030;-69
2022/03/20 03:17:48;;;;;;;0.10;0.10;;;5.80;99.90;;;;;;5026711;28;20127;-66
2022/03/20 03:20:14;;;;;;;0.13;0.13;;;5.80;99.90;;;;;;5027312;28;20048;-67
2022/03/20 03:22:40;;;;;;;0.10;0.10;;;5.70;99.90;;;;;;5021692;28;20061;-66
2022/03/20 03:25:06;;;;;;;0.10;0.10;;;5.70;99.90;;;;;;5020632;28;20499;-67
2022/03/20 03:27:32;;;;;;;0.90;0.90;;;5.70;99.90;;;;;;5023406;28;20132;-68
2022/03/20 03:29:57;;;;;;;2.00;1.85;;;5.80;99.90;;;;;;5025028;28;20100;-67
2022/03/20 03:32:23;;;;;;;1.65;1.60;;;5.70;99.90;;;;;;5026093;28;20518;-66
2022/03/20 03:37:34;;;;;;;0.20;0.20;;;5.80;99.90;;;;;;5022915;28;20537;-66
2022/03/20 03:40:01;;;;;;;0.50;0.50;;;5.80;99.90;;;;;;5020964;28;20038;-66
2022/03/20 03:42:28;;;;;;;2.72;2.55;;;5.80;99.90;;;;;;5025276;28;20040;-66
2022/03/20 03:44:54;;;;;;;0.10;0.10;;;5.70;99.90;;;;;;5028918;28;20112;-67
2022/03/20 03:47:20;;;;;;;0.10;0.10;;;5.80;99.90;;;;;;5020735;28;20045;-65
2022/03/20 03:49:45;;;;;;;1.00;1.00;;;5.80;99.90;;;;;;5028428;28;20063;-67
2022/03/20 03:52:11;;;;;;;0.63;0.63;;;5.80;99.90;;;;;;5029315;28;20037;-66
2022/03/20 03:54:37;;;;;;;0.57;0.57;;;6.00;99.90;;;;;;5030060;28;20416;-66
2022/03/20 03:57:03;;;;;;;0.30;0.30;;;5.90;99.90;;;;;;5027702;28;20028;-67
2022/03/20 03:59:28;;;;;;;0.63;0.63;;;5.90;99.90;;;;;;5030733;28;20021;-67
2022/03/20 04:01:55;;;;;;;0.10;0.10;;;5.90;99.90;;;;;;5029535;28;20487;-67
2022/03/20 04:04:21;;;;;;;0.10;0.10;;;6.00;99.90;;;;;;5028078;28;20020;-65
2022/03/20 04:06:46;;;;;;;0.95;0.95;;;6.00;99.90;;;;;;5029156;28;20033;-66
2022/03/20 04:09:12;;;;;;;0.10;0.10;;;5.90;99.90;;;;;;5029915;28;20027;-65
2022/03/20 04:11:38;;;;;;;0.15;0.15;;;5.90;99.90;;;;;;5027335;28;20399;-67
2022/03/20 04:14:03;;;;;;;0.10;0.10;;;5.90;99.90;;;;;;5024422;28;20025;-66
2022/03/20 04:16:29;;;;;;;0.30;0.30;;;5.90;99.90;;;;;;5023663;28;20029;-66
2022/03/20 04:18:55;;;;;;;0.40;0.40;;;6.00;99.90;;;;;;5020346;28;20022;-66
2022/03/20 04:21:20;;;;;;;2.20;2.00;;;6.00;99.90;;;;;;5019936;28;20662;-66
2022/03/20 04:23:46;;;;;;;0.10;0.10;;;6.00;99.90;;;;;;5018640;28;20036;-67
2022/03/20 04:26:14;;;;;;;11.40;4.13;;;5.90;99.90;;;;;;5024275;28;20376;-65
2022/03/20 04:28:40;;;;;;;0.60;0.60;;;5.90;99.90;;;;;;5022756;28;20048;-66
2022/03/20 04:31:06;;;;;;;0.10;0.10;;;5.90;99.90;;;;;;5020497;28;20025;-67
2022/03/20 04:33:31;;;;;;;0.10;0.10;;;5.80;99.90;;;;;;5025215;28;20033;-66
2022/03/20 04:35:57;;;;;;;1.85;1.75;;;5.70;99.90;;;;;;5027804;28;20560;-67
2022/03/20 04:38:23;;;;;;;0.10;0.10;;;5.70;99.90;;;;;;5022463;28;20049;-68
2022/03/20 04:40:50;;;;;;;3.30;1.85;;;5.70;99.90;;;;;;5019471;28;20038;-66
2022/03/20 04:43:17;;;;;;;1.65;1.65;;;5.80;99.90;;;;;;5027208;28;20025;-67
2022/03/20 04:45:43;;;;;;;0.10;0.10;;;5.90;99.90;;;;;;5021505;28;20048;-66
2022/03/20 04:59:06;;;;;;;0.20;0.20;;;6.00;99.90;;;;;;5044797;28;20028;-67
2022/03/20 05:01:31;;;;;;;0.10;0.10;;;6.00;99.90;;;;;;5021718;28;20033;-65
2022/03/20 05:03:58;;;;;;;0.40;0.40;;;6.10;99.90;;;;;;5028431;28;20029;-66
2022/03/20 05:06:24;;;;;;;0.22;0.22;;;6.10;99.90;;;;;;5027347;28;20471;-67
2022/03/20 05:08:49;;;;;;;8.15;2.85;;;6.10;99.90;;;;;;5031034;28;20177;-67
2022/03/20 05:13:59;;;;;;;0.82;0.80;;;6.20;99.90;;;;;;5027232;28;20115;-67
2022/03/20 05:16:25;;;;;;;2.72;2.55;;;6.30;99.90;;;;;;5020956;28;20041;-67
2022/03/20 05:18:50;;;;;;;0.45;0.45;;;6.30;99.90;;;;;;5021151;28;20045;-66
2022/03/20 05:21:16;;;;;;;0.80;0.80;;;6.30;99.90;;;;;;5024331;28;20022;-66
2022/03/20 05:23:41;;;;;;;2.63;2.50;;;6.30;99.90;;;;;;5021890;28;20022;-67
2022/03/20 05:26:07;;;;;;;0.40;0.40;;;6.20;99.90;;;;;;5035634;28;20040;-67
2022/03/20 05:28:33;;;;;;;2.30;2.10;;;6.10;99.90;;;;;;5028817;28;20533;-66
2022/03/20 05:30:58;;;;;;;0.10;0.10;;;6.20;99.90;;;;;;5028069;28;20124;-67
2022/03/20 05:33:24;;;;;;;0.38;0.38;;;6.20;99.90;;;;;;5020651;28;20033;-67
2022/03/20 05:35:50;;;;;;;0.10;0.10;;;6.30;99.90;;;;;;5022032;28;20037;-68
2022/03/20 05:38:15;;;;;;;2.95;2.72;;;6.30;99.90;;;;;;5029498;28;20032;-67
2022/03/20 05:40:42;;;;;;;0.10;0.10;;;6.40;99.90;;;;;;5040060;28;20061;-67
2022/03/20 05:43:08;;;;;;;1.85;1.75;;;6.30;99.90;;;;;;5028603;28;20025;-66
2022/03/20 05:45:37;;;;;;;1.40;1.33;;;6.40;99.90;;;;;;5030828;28;20560;-67
2022/03/20 05:48:03;;;;;;;0.20;0.20;;;6.50;99.90;;;;;;5028464;28;20032;-67
2022/03/20 05:50:29;;;;;;;0.10;0.10;;;6.50;99.90;;;;;;5021570;28;20033;-67
2022/03/20 05:52:55;;;;;;;0.10;0.10;;;6.50;99.90;;;;;;5038074;28;20028;-67
2022/03/20 05:58:01;;;;;;;9.23;7.32;;;6.50;99.90;;;;;;5045631;28;20471;-67
2022/03/20 05:58:11;;;;;;;1.35;1.27;;;6.50;99.90;;;;;;5041125;28;20156;-67
2022/03/20 06:00:40;;;;;;;1.92;1.33;;;6.60;99.90;;;;;;5026364;28;20033;-67
2022/03/20 06:03:05;;;;;;;0.90;0.90;;;6.60;99.90;;;;;;5040611;28;20148;-68
2022/03/20 06:05:31;;;;;;;1.92;1.85;;;6.70;99.90;;;;;;5032631;28;20100;-67
2022/03/20 06:07:56;;;;;;;0.82;0.82;;;6.70;99.90;;;;;;5032897;28;20030;-67
2022/03/20 06:10:22;;;;;;;1.20;1.20;;;6.70;99.90;;;;;;5026686;28;20125;-67
2022/03/20 06:12:48;;;;;;;0.22;0.22;;;6.80;99.90;;;;;;5029675;28;20033;-69
2022/03/20 06:15:14;;;;;;;0.77;0.77;;;6.90;99.90;;;;;;5023781;28;20145;-67
2022/03/20 06:17:47;;;;;;;0.28;0.28;;;6.90;99.90;;;;;;5028430;28;20030;-67
2022/03/20 06:20:15;;;;;;;0.43;0.43;;;7.00;99.90;;;;;;5025576;28;20091;-67
2022/03/20 06:22:43;;;;;;;1.10;1.10;;;7.00;99.90;;;;;;5028920;28;20069;-67
2022/03/20 06:25:09;;;;;;;11.38;3.83;;;7.10;99.90;;;;;;5026977;28;20453;-67
2022/03/20 06:27:45;;;;;;;0.10;0.10;;;7.10;99.90;;;;;;5023518;28;20501;-66
2022/03/20 06:30:13;;;;;;;1.10;1.10;;;7.10;99.90;;;;;;5023129;28;20033;-67
2022/03/20 06:32:39;;;;;;;2.05;1.75;;;7.10;99.90;;;;;;5027023;28;20029;-65
2022/03/20 06:35:09;;;;;;;0.45;0.45;;;7.10;99.90;;;;;;5029460;28;20041;-67
2022/03/20 06:37:46;;;;;;;0.25;0.25;;;7.20;99.90;;;;;;5030276;28;20025;-68
2022/03/20 06:40:14;;;;;;;1.85;1.75;;;7.20;99.90;;;;;;5027761;28;20143;-67
2022/03/20 06:42:40;;;;;;;2.53;2.30;;;7.20;99.90;;;;;;5031297;28;20105;-67
2022/03/20 06:45:08;;;;;;;0.10;0.10;;;7.30;99.90;;;;;;5030967;28;20023;-65
2022/03/20 06:47:35;;;;;;;0.20;0.20;;;7.20;99.90;;;;;;5031219;28;20022;-67
2022/03/20 06:50:01;;;;;;;1.30;1.30;;;7.20;99.90;;;;;;5047974;28;20357;-67
2022/03/20 06:52:30;;;;;;;0.10;0.10;;;7.20;99.90;;;;;;5034481;28;20029;-67
2022/03/20 06:54:57;;;;;;;0.75;0.75;;;7.30;99.90;;;;;;5038607;28;20061;-67
2022/03/20 06:57:23;;;;;;;0.98;0.98;;;7.30;99.90;;;;;;5030582;28;20029;-67
2022/03/20 06:59:49;;;;;;;2.10;2.00;;;7.30;99.90;;;;;;5027982;28;20451;-67
2022/03/20 07:02:18;;;;;;;0.40;0.40;;;7.30;99.90;;;;;;5026752;28;20025;-67
2022/03/20 07:04:47;;;;;;;0.13;0.13;;;7.30;99.90;;;;;;5022893;28;20086;-67
2022/03/20 07:07:16;;;;;;;0.10;0.10;;;7.30;99.90;;;;;;5028842;28;20022;-67
2022/03/20 07:09:43;;;;;;;0.20;0.20;;;7.30;99.90;;;;;;5029525;28;20021;-67
2022/03/20 07:12:10;;;;;;;14.80;9.77;;;7.40;99.90;;;;;;5025640;28;20513;-67
2022/03/20 07:14:38;;;;;;;0.77;0.77;;;7.50;99.90;;;;;;5025314;28;20082;-66
2022/03/20 07:17:09;;;;;;;0.40;0.40;;;7.50;99.90;;;;;;5028708;28;20515;-67
2022/03/20 07:19:39;;;;;;;2.88;2.78;;;7.60;99.90;;;;;;5027438;28;20087;-66
2022/03/20 07:22:06;;;;;;;0.13;0.13;;;7.70;99.90;;;;;;5024346;28;20044;-67
2022/03/20 07:24:37;;;;;;;1.25;0.95;;;7.70;99.90;;;;;;5027298;28;20483;-67
2022/03/20 07:29:49;;;;;;;0.40;0.40;;;7.70;99.90;;;;;;5027845;28;20048;-66
2022/03/20 07:32:15;;;;;;;0.10;0.10;;;7.70;99.90;;;;;;5028062;28;20052;-65
2022/03/20 07:34:44;;;;;;;0.10;0.10;;;7.70;99.90;;;;;;5026066;28;20102;-67
2022/03/20 07:37:09;;;;;;;0.10;0.10;;;7.90;99.90;;;;;;5024837;28;20479;-68
2022/03/20 07:39:36;;;;;;;2.50;2.40;;;7.90;99.90;;;;;;5023731;28;20048;-68
2022/03/20 07:42:02;;;;;;;0.10;0.10;;;8.00;99.90;;;;;;5029748;28;20087;-68
2022/03/20 07:44:31;;;;;;;0.13;0.13;;;8.10;99.90;;;;;;5023239;28;20025;-67
2022/03/20 07:46:58;;;;;;;0.22;0.22;;;8.30;99.90;;;;;;5026296;28;20037;-68
2022/03/20 07:49:23;;;;;;;5.22;4.78;;;8.20;99.90;;;;;;5030301;28;20016;-68
2022/03/20 07:51:50;;;;;;;0.10;0.10;;;8.30;99.90;;;;;;5034197;28;20087;-67
2022/03/20 07:54:16;;;;;;;0.10;0.10;;;8.30;99.90;;;;;;5029676;28;20032;-68
2022/03/20 07:56:42;;;;;;;1.15;1.15;;;8.40;99.90;;;;;;5031756;28;20112;-68
2022/03/20 07:59:09;;;;;;;0.20;0.20;;;8.40;99.90;;;;;;5029259;28;20055;-67
2022/03/20 08:01:36;;;;;;;0.63;0.63;;;8.40;99.90;;;;;;5026689;28;20060;-67
2022/03/20 08:04:02;;;;;;;0.10;0.10;;;8.50;99.90;;;;;;5030066;28;20036;-67
2022/03/20 08:06:28;;;;;;;0.30;0.30;;;8.60;99.80;;;;;;5026114;28;20026;-68
2022/03/20 08:08:53;;;;;;;0.50;0.50;;;8.60;99.90;;;;;;5023620;28;20028;-67
2022/03/20 08:11:20;;;;;;;0.10;0.10;;;8.70;99.80;;;;;;5029631;28;20075;-67
2022/03/20 08:13:46;;;;;;;0.10;0.10;;;8.70;99.10;;;;;;5026249;28;20029;-67
2022/03/20 08:16:15;;;;;;;0.10;0.10;;;8.80;98.70;;;;;;5026876;28;20029;-67
2022/03/20 08:18:43;;;;;;;0.10;0.10;;;8.80;99.20;;;;;;5023667;28;20062;-67
2022/03/20 08:21:13;;;;;;;0.20;0.20;;;8.80;99.90;;;;;;5023170;28;20022;-70
2022/03/20 08:23:39;;;;;;;2.85;2.72;;;8.90;99.90;;;;;;5024171;28;20049;-69
2022/03/20 08:26:08;;;;;;;0.10;0.10;;;9.00;99.10;;;;;;5021332;28;20175;-68
2022/03/20 08:28:35;;;;;;;0.35;0.35;;;9.20;98.20;;;;;;5029722;28;20108;-67
2022/03/20 08:31:00;;;;;;;0.10;0.10;;;9.30;98.70;;;;;;5024717;28;20021;-68
2022/03/20 08:33:27;;;;;;;0.35;0.35;;;9.40;98.10;;;;;;5023013;28;20391;-68
2022/03/20 08:35:52;;;;;;;1.85;1.75;;;9.50;97.80;;;;;;5021231;28;20056;-67
2022/03/20 08:38:18;;;;;;;0.10;0.10;;;9.60;97.40;;;;;;5018668;28;20550;-68
2022/03/20 08:40:44;;;;;;;0.15;0.15;;;9.60;97.70;;;;;;5023738;28;20033;-68
2022/03/20 08:43:15;;;;;;;0.10;0.10;;;9.70;97.30;;;;;;5021113;28;20371;-68
2022/03/20 08:45:41;;;;;;;0.10;0.10;;;9.90;96.90;;;;;;5023425;28;20053;-68
2022/03/20 08:48:08;;;;;;;1.90;1.80;;;10.00;95.60;;;;;;5022083;28;20025;-67
2022/03/20 08:50:34;;;;;;;0.10;0.10;;;10.00;94.80;;;;;;5021096;28;20565;-66
2022/03/20 08:52:59;;;;;;;1.42;1.38;;;10.10;94.40;;;;;;5017755;28;20129;-68
2022/03/20 08:55:25;;;;;;;4.28;2.17;;;10.10;94.70;;;;;;5027786;28;20499;-67
2022/03/20 08:57:54;;;;;;;0.30;0.30;;;10.20;93.90;;;;;;5028581;28;20026;-67
2022/03/20 09:00:22;;;;;;;0.10;0.10;;;10.30;93.30;;;;;;5032460;28;20109;-67
2022/03/20 09:02:49;;;;;;;0.25;0.25;;;10.30;93.20;;;;;;5026749;28;20132;-67
2022/03/20 09:05:16;;;;;;;0.10;0.10;;;10.40;93.00;;;;;;5025900;28;20095;-66
2022/03/20 09:07:43;;;;;;;0.30;0.30;;;10.50;93.40;;;;;;5023492;28;20032;-67
2022/03/20 09:10:10;;;;;;;0.10;0.10;;;10.60;92.80;;;;;;5022690;28;20071;-67
2022/03/20 09:12:40;;;;;;;0.10;0.10;;;10.70;92.60;;;;;;5023702;28;20040;-69
2022/03/20 09:15:10;;;;;;;0.28;0.28;;;10.90;93.20;;;;;;5025664;28;20029;-67
2022/03/20 09:20:20;;;;;;;0.43;0.43;;;11.10;91.60;;;;;;5022911;28;20044;-68
2022/03/20 09:22:45;;;;;;;0.10;0.10;;;11.20;90.80;;;;;;5019169;28;20029;-67
2022/03/20 09:25:11;;;;;;;0.10;0.10;;;11.40;90.70;;;;;;5026300;28;20056;-66
2022/03/20 09:27:37;;;;;;;0.10;0.10;;;11.60;87.60;;;;;;5032042;28;20075;-66
2022/03/20 09:30:04;;;;;;;0.10;0.10;;;11.70;87.90;;;;;;5029484;28;20033;-68
2022/03/20 09:32:30;;;;;;;0.10;0.10;;;11.80;87.40;;;;;;5027845;28;20096;-68
2022/03/20 09:34:56;;;;;;;0.10;0.10;;;12.00;83.90;;;;;;5029943;28;20538;-68
2022/03/20 09:37:21;;;;;;;0.10;0.10;;;12.00;82.90;;;;;;5031852;28;20029;-69
2022/03/20 09:39:47;;;;;;;3.55;3.20;;;12.10;85.30;;;;;;5037460;28;20025;-67
2022/03/20 09:42:13;;;;;;;0.08;0.08;;;12.30;83.40;;;;;;5038254;28;20017;-68
2022/03/20 09:44:40;;;;;;;0.10;0.10;;;12.30;83.00;;;;;;5026939;28;20084;-68
2022/03/20 09:47:13;;;;;;;0.10;0.10;;;12.40;83.00;;;;;;5026889;28;20021;-67
2022/03/20 09:49:39;;;;;;;;;;;12.50;82.50;;;;;;5034125;28;20032;-67
2022/03/20 09:52:09;;;;;;;0.70;0.70;;;12.70;82.10;;;;;;5024638;28;19917;-66
2022/03/20 09:54:35;;;;;;;0.10;0.10;;;12.90;79.20;;;;;;5026522;28;20061;-67
2022/03/20 09:57:05;;;;;;;0.10;0.10;;;13.20;78.70;;;;;;5031692;28;20029;-67
2022/03/20 09:59:32;;;;;;;0.10;0.10;;;13.20;75.60;;;;;;5031803;28;20029;-67
2022/03/20 10:02:06;;;;;;;0.10;0.10;;;13.60;75.40;;;;;;5033090;28;20079;-68
2022/03/20 10:04:50;;;;;;;0.90;0.90;;;14.10;74.90;;;;;;5019827;28;20022;-65
2022/03/20 10:07:21;;;;;;;0.10;0.10;;;14.50;71.10;;;;;;5012060;28;20543;-66
2022/03/20 10:10:05;;;;;;;0.10;0.10;;;14.80;71.70;;;;;;5019378;28;20655;-66
2022/03/20 10:12:32;;;;;;;0.20;0.20;;;14.90;71.40;;;;;;5029561;28;20112;-68
2022/03/20 10:14:57;;;;;;;5.72;3.45;;;14.90;72.30;;;;;;5026933;28;20029;-66
2022/03/20 10:17:23;;;;;;;0.10;0.10;;;14.90;71.80;;;;;;5023717;28;20028;-66
2022/03/20 10:19:48;;;;;;;0.10;0.10;;;15.00;70.80;;;;;;5022228;28;20084;-66
2022/03/20 10:22:21;;;;;;;0.70;0.65;;;15.00;71.20;;;;;;5029405;28;20105;-67
2022/03/20 10:24:51;;;;;;;0.10;0.10;;;15.00;71.60;;;;;;5028201;28;20103;-67
2022/03/20 10:27:17;;;;;;;0.10;0.10;;;14.90;72.10;;;;;;5029385;28;20013;-65
2022/03/20 10:29:52;;;;;;;5.15;3.47;;;14.70;72.80;;;;;;5021667;28;20357;-65
2022/03/20 10:32:18;;;;;;;0.13;0.13;;;14.60;73.40;;;;;;5028024;28;20075;-66
2022/03/20 10:34:48;;;;;;;0.10;0.10;;;14.50;73.40;;;;;;5028269;28;20117;-66
2022/03/20 10:37:13;;;;;;;0.10;0.10;;;14.60;73.60;;;;;;5029651;28;20115;-67
2022/03/20 10:39:42;;;;;;;0.10;0.10;;;14.60;74.00;;;;;;5037101;28;20479;-66
2022/03/20 10:42:11;;;;;;;0.10;0.10;;;14.60;73.70;;;;;;5026269;28;20028;-67
2022/03/20 10:44:38;;;;;;;0.10;0.10;;;14.60;73.80;;;;;;5030634;28;20028;-67
2022/03/20 10:47:09;;;;;;;0.10;0.10;;;14.60;74.00;;;;;;5020234;28;20022;-67
2022/03/20 10:52:18;;;;;;;0.10;0.10;;;14.70;73.70;;;;;;4989270;28;20053;-69
2022/03/20 10:54:53;;;;;;;0.10;0.10;;;14.80;73.40;;;;;;4989878;28;20049;-68
2022/03/20 10:57:20;;;;;;;0.10;0.10;;;14.90;73.20;;;;;;4995394;28;20040;-68
2022/03/20 11:00:05;;;;;;;0.10;0.10;;;14.80;73.00;;;;;;4985828;28;20027;-68
2022/03/20 11:02:31;;;;;;;0.10;0.10;;;14.80;73.40;;;;;;4988613;28;20030;-68
2022/03/20 11:04:56;;;;;;;0.55;0.52;;;14.90;71.80;;;;;;4992328;28;20030;-67
2022/03/20 11:07:28;;;;;;;0.10;0.10;;;15.20;71.50;;;;;;4991793;28;20026;-71
2022/03/20 11:09:55;;;;;;;0.10;0.10;;;15.30;71.10;;;;;;4988540;28;20042;-68
2022/03/20 11:12:32;;;;;;;0.10;0.10;;;15.40;71.80;;;;;;4992156;28;20495;-67
2022/03/20 11:15:06;;;;;;;0.10;0.10;;;15.30;71.00;;;;;;4989385;28;20065;-67
2022/03/20 11:17:44;;;;;;;0.10;0.10;;;15.40;70.80;;;;;;4985602;28;20121;-67
2022/03/20 11:20:15;;;;;;;0.10;0.10;;;15.40;71.10;;;;;;4989140;28;20034;-67
2022/03/20 11:23:04;;;;;;;1.08;1.08;;;15.40;71.20;;;;;;4990376;28;20086;-66
2022/03/20 11:25:32;;;;;;;1.65;1.55;;;15.60;70.60;;;;;;4985693;28;20049;-67
2022/03/20 11:28:03;;;;;;;4.95;2.42;;;15.80;69.00;;;;;;4991100;28;20065;-66
2022/03/20 11:30:31;;;;;;;0.10;0.10;;;16.10;69.30;;;;;;4986194;28;20030;-66
2022/03/20 11:33:00;;;;;;;0.00;0.00;;;16.20;67.30;;;;;;4992303;28;20026;-68
2022/03/20 11:35:30;;;;;;;0.03;0.03;;;16.00;67.50;;;;;;4990725;28;20103;-67
2022/03/20 11:38:11;;;;;;;0.57;0.57;;;16.20;68.40;;;;;;4991395;28;20053;-65
2022/03/20 11:40:41;;;;;;;0.10;0.10;;;16.60;66.60;;;;;;4984212;28;20038;-67
2022/03/20 11:43:19;;;;;;;0.20;0.20;;;16.80;66.10;;;;;;4989136;28;20488;-67
2022/03/20 11:46:13;;;;;;;0.10;0.10;;;16.60;67.20;;;;;;4990654;28;20027;-69
2022/03/20 11:48:38;;;;;;;0.00;0.00;;;17.30;64.90;;;;;;4988064;28;20035;-68
2022/03/20 11:51:04;;;;;;;0.00;0.00;;;17.40;62.60;;;;;;4988665;28;20050;-69
2022/03/20 11:53:31;;;;;;;0.10;0.10;;;17.30;63.40;;;;;;4990263;28;20037;-68
2022/03/20 11:55:57;;;;;;;0.55;0.55;;;16.90;62.80;;;;;;4990979;28;20033;-70
2022/03/20 11:58:24;;;;;;;0.95;0.95;;;16.80;62.40;;;;;;4990870;28;20022;-67
2022/03/20 12:01:07;;;;;;;0.75;0.75;;;16.90;63.50;;;;;;4988868;28;20022;-67
2022/03/20 12:03:47;;;;;;;0.10;0.10;;;16.90;62.60;;;;;;4990098;28;20416;-67
2022/03/20 12:06:36;;;;;;;0.20;0.20;;;16.90;63.40;;;;;;4987880;28;20091;-68
2022/03/20 12:09:19;;;;;;;0.15;0.15;;;16.60;63.10;;;;;;4976850;28;20627;-69
2022/03/20 12:12:07;;;;;;;1.27;1.27;;;16.70;63.10;;;;;;4989597;28;20019;-69
2022/03/20 12:14:38;;;;;;;5.82;1.75;;;16.60;63.10;;;;;;4983925;28;20044;-70
2022/03/20 12:17:05;;;;;;;0.10;0.10;;;16.60;63.00;;;;;;4991148;28;20034;-68
2022/03/20 12:19:53;;;;;;;0.10;0.10;;;16.60;63.00;;;;;;4986583;28;20035;-70
2022/03/20 12:22:19;;;;;;;0.45;0.45;;;16.70;62.30;;;;;;4985847;28;20027;-69
2022/03/20 12:24:51;;;;;;;0.10;0.10;;;16.80;61.80;;;;;;4990644;28;20486;-70
2022/03/20 12:27:23;;;;;;;1.35;1.35;;;16.90;62.50;;;;;;4989109;28;20407;-68
2022/03/20 12:30:26;;;;;;;0.00;0.00;;;17.10;60.90;;;;;;4989589;28;20527;-70
2022/03/20 12:32:52;;;;;;;0.10;0.10;;;17.30;60.10;;;;;;4989002;28;20554;-69
2022/03/20 12:35:23;;;;;;;6.30;4.15;;;17.50;60.30;;;;;;4988714;28;20034;-68
2022/03/20 12:37:50;;;;;;;0.55;0.55;;;17.50;59.60;;;;;;4986443;28;20058;-69
2022/03/20 12:40:33;;;;;;;0.00;0.00;;;17.50;59.20;;;;;;4987698;28;20108;-69
2022/03/20 12:43:05;;;;;;;;;;;17.50;58.30;;;;;;4986756;28;20034;-69
2022/03/20 12:45:32;;;;;;;0.40;0.40;;;17.30;58.60;;;;;;4987358;28;20283;-68
2022/03/20 12:48:00;;;;;;;0.68;0.68;;;17.20;58.50;;;;;;4989092;28;20038;-68
2022/03/20 12:50:28;;;;;;;0.85;0.85;;;17.20;58.60;;;;;;4994111;28;20030;-68
2022/03/20 12:53:03;;;;;;;0.10;0.10;;;17.20;58.30;;;;;;4985381;28;20084;-69
2022/03/20 12:55:30;;;;;;;0.35;0.35;;;17.10;57.50;;;;;;4984894;28;20036;-68
2022/03/20 12:57:56;;;;;;;0.20;0.20;;;17.20;58.10;;;;;;4985978;28;20030;-69
2022/03/20 13:00:27;;;;;;;0.00;0.00;;;17.50;57.50;;;;;;4980651;28;20040;-68
2022/03/20 13:03:03;;;;;;;0.70;0.70;;;17.70;56.80;;;;;;4980356;28;20582;-68
2022/03/20 13:05:31;;;;;;;0.00;0.00;;;18.90;54.70;;;;;;4981970;28;20756;-68
2022/03/20 13:07:57;;;;;;;0.03;0.03;;;20.10;52.20;;;;;;4977690;28;20019;-68
2022/03/20 13:10:24;;;;;;;1.75;1.65;;;20.40;50.20;;;;;;4979818;28;20400;-69
2022/03/20 13:12:58;;;;;;;0.00;0.00;;;21.30;48.00;;;;;;4980445;28;20029;-67
2022/03/20 13:15:25;;;;;;;0.00;0.00;;;21.10;47.30;;;;;;4979932;28;20023;-68
2022/03/20 13:17:51;;;;;;;1.02;1.02;;;20.00;47.50;;;;;;4982193;28;20030;-69
2022/03/20 13:20:22;;;;;;;0.00;0.00;;;20.40;47.70;;;;;;4982414;28;20488;-67
2022/03/20 13:22:48;;;;;;;0.10;0.10;;;21.70;46.40;;;;;;4976766;28;20045;-67
2022/03/20 13:25:22;;;;;;;0.00;0.00;;;22.50;45.40;;;;;;4983475;28;20027;-68